sensor_id;sensor_type;location;lat;lon;timestamp;P1;durP1;ratioP1;P2;durP2;ratioP2
43142;SDS011;28750;59.842;17.584;2024-01-06T00:00:10;3.10;;;1.80;;
43142;SDS011;28750;59.842;17.584;2024-01-06T00:02:38;5.50;;;2.13;;
43142;SDS011;28750;59.842;17.584;2024-01-06T00:05:05;4.47;;;2.17;;
43142;SDS011;28750;59.842;17.584;2024-01-06T00:07:33;3.13;;;1.75;;
43142;SDS011;28750;59.842;17.584;2024-01-06T00:10:00;3.88;;;1.90;;
43142;SDS011;28750;59.842;17.584;2024-01-06T00:12:28;3.63;;;2.10;;
43142;SDS011;28750;59.842;17.584;2024-01-06T00:14:55;1.65;;;1.45;;
43142;SDS011;28750;59.842;17.584;2024-01-06T00:17:23;4.88;;;2.45;;
43142;SDS011;28750;59.842;17.584;2024-01-06T00:19:50;3.75;;;1.88;;
43142;SDS011;28750;59.842;17.584;2024-01-06T00:22:18;3.72;;;1.90;;
43142;SDS011;28750;59.842;17.584;2024-01-06T00:24:45;2.75;;;1.77;;
43142;SDS011;28750;59.842;17.584;2024-01-06T00:27:13;3.28;;;2.15;;
43142;SDS011;28750;59.842;17.584;2024-01-06T00:29:41;2.97;;;2.28;;
43142;SDS011;28750;59.842;17.584;2024-01-06T00:32:08;2.90;;;1.90;;
43142;SDS011;28750;59.842;17.584;2024-01-06T00:34:36;3.92;;;2.00;;
43142;SDS011;28750;59.842;17.584;2024-01-06T00:37:03;2.92;;;2.05;;
43142;SDS011;28750;59.842;17.584;2024-01-06T00:39:31;3.90;;;2.42;;
43142;SDS011;28750;59.842;17.584;2024-01-06T00:41:58;3.65;;;1.83;;
43142;SDS011;28750;59.842;17.584;2024-01-06T00:44:26;2.08;;;1.60;;
43142;SDS011;28750;59.842;17.584;2024-01-06T00:46:53;3.83;;;2.13;;
43142;SDS011;28750;59.842;17.584;2024-01-06T00:49:21;2.67;;;1.55;;
43142;SDS011;28750;59.842;17.584;2024-01-06T00:51:48;3.63;;;1.85;;
43142;SDS011;28750;59.842;17.584;2024-01-06T00:54:16;3.10;;;1.73;;
43142;SDS011;28750;59.842;17.584;2024-01-06T00:56:43;2.47;;;1.75;;
43142;SDS011;28750;59.842;17.584;2024-01-06T00:59:11;2.80;;;1.92;;
43142;SDS011;28750;59.842;17.584;2024-01-06T01:01:38;3.03;;;1.73;;
43142;SDS011;28750;59.842;17.584;2024-01-06T01:04:05;3.33;;;1.70;;
43142;SDS011;28750;59.842;17.584;2024-01-06T01:06:33;2.20;;;1.63;;
43142;SDS011;28750;59.842;17.584;2024-01-06T01:09:00;2.42;;;1.58;;
43142;SDS011;28750;59.842;17.584;2024-01-06T01:11:29;2.97;;;1.80;;
43142;SDS011;28750;59.842;17.584;2024-01-06T01:13:57;2.92;;;1.90;;
43142;SDS011;28750;59.842;17.584;2024-01-06T01:16:24;3.00;;;1.60;;
43142;SDS011;28750;59.842;17.584;2024-01-06T01:18:52;2.00;;;1.42;;
43142;SDS011;28750;59.842;17.584;2024-01-06T01:21:19;2.15;;;1.58;;
43142;SDS011;28750;59.842;17.584;2024-01-06T01:23:47;2.70;;;1.60;;
43142;SDS011;28750;59.842;17.584;2024-01-06T01:26:14;2.42;;;1.90;;
43142;SDS011;28750;59.842;17.584;2024-01-06T01:28:42;1.30;;;1.20;;
43142;SDS011;28750;59.842;17.584;2024-01-06T01:31:09;1.98;;;1.50;;
43142;SDS011;28750;59.842;17.584;2024-01-06T01:33:37;3.88;;;1.60;;
43142;SDS011;28750;59.842;17.584;2024-01-06T01:36:04;2.00;;;1.58;;
43142;SDS011;28750;59.842;17.584;2024-01-06T01:38:31;2.80;;;1.83;;
43142;SDS011;28750;59.842;17.584;2024-01-06T01:40:59;2.67;;;1.60;;
43142;SDS011;28750;59.842;17.584;2024-01-06T01:43:26;1.92;;;1.38;;
43142;SDS011;28750;59.842;17.584;2024-01-06T01:45:54;2.67;;;1.60;;
43142;SDS011;28750;59.842;17.584;2024-01-06T01:48:22;1.65;;;1.42;;
43142;SDS011;28750;59.842;17.584;2024-01-06T01:50:49;1.77;;;1.38;;
43142;SDS011;28750;59.842;17.584;2024-01-06T01:53:17;2.72;;;1.55;;
43142;SDS011;28750;59.842;17.584;2024-01-06T01:55:45;2.70;;;1.88;;
43142;SDS011;28750;59.842;17.584;2024-01-06T01:58:14;3.40;;;1.90;;
43142;SDS011;28750;59.842;17.584;2024-01-06T02:00:42;3.25;;;1.70;;
43142;SDS011;28750;59.842;17.584;2024-01-06T02:03:10;1.42;;;1.33;;
43142;SDS011;28750;59.842;17.584;2024-01-06T02:05:38;3.03;;;1.50;;
43142;SDS011;28750;59.842;17.584;2024-01-06T02:08:05;2.67;;;1.60;;
43142;SDS011;28750;59.842;17.584;2024-01-06T02:10:33;1.75;;;1.45;;
43142;SDS011;28750;59.842;17.584;2024-01-06T02:13:10;3.78;;;1.80;;
43142;SDS011;28750;59.842;17.584;2024-01-06T02:15:38;2.92;;;1.63;;
43142;SDS011;28750;59.842;17.584;2024-01-06T02:18:05;2.00;;;1.42;;
43142;SDS011;28750;59.842;17.584;2024-01-06T02:20:33;1.52;;;1.40;;
43142;SDS011;28750;59.842;17.584;2024-01-06T02:23:01;4.47;;;1.70;;
43142;SDS011;28750;59.842;17.584;2024-01-06T02:25:28;2.85;;;1.80;;
43142;SDS011;28750;59.842;17.584;2024-01-06T02:27:56;3.22;;;1.52;;
43142;SDS011;28750;59.842;17.584;2024-01-06T02:30:23;1.83;;;1.65;;
43142;SDS011;28750;59.842;17.584;2024-01-06T02:32:51;2.72;;;1.73;;
43142;SDS011;28750;59.842;17.584;2024-01-06T02:35:18;2.28;;;1.52;;
43142;SDS011;28750;59.842;17.584;2024-01-06T02:37:45;5.07;;;2.05;;
43142;SDS011;28750;59.842;17.584;2024-01-06T02:40:13;1.52;;;1.42;;
43142;SDS011;28750;59.842;17.584;2024-01-06T02:42:41;3.25;;;1.80;;
43142;SDS011;28750;59.842;17.584;2024-01-06T02:45:08;2.38;;;1.48;;
43142;SDS011;28750;59.842;17.584;2024-01-06T02:47:36;3.22;;;1.88;;
43142;SDS011;28750;59.842;17.584;2024-01-06T02:50:04;3.00;;;1.75;;
43142;SDS011;28750;59.842;17.584;2024-01-06T02:52:31;2.63;;;1.40;;
43142;SDS011;28750;59.842;17.584;2024-01-06T02:54:58;2.55;;;1.63;;
43142;SDS011;28750;59.842;17.584;2024-01-06T02:57:27;3.13;;;1.90;;
43142;SDS011;28750;59.842;17.584;2024-01-06T02:59:55;2.65;;;2.00;;
43142;SDS011;28750;59.842;17.584;2024-01-06T03:02:22;2.30;;;1.55;;
43142;SDS011;28750;59.842;17.584;2024-01-06T03:04:50;1.88;;;1.65;;
43142;SDS011;28750;59.842;17.584;2024-01-06T03:07:17;2.28;;;1.35;;
43142;SDS011;28750;59.842;17.584;2024-01-06T03:09:45;3.33;;;1.70;;
43142;SDS011;28750;59.842;17.584;2024-01-06T03:12:12;2.53;;;1.98;;
43142;SDS011;28750;59.842;17.584;2024-01-06T03:14:41;2.58;;;1.83;;
43142;SDS011;28750;59.842;17.584;2024-01-06T03:17:08;2.40;;;1.45;;
43142;SDS011;28750;59.842;17.584;2024-01-06T03:19:36;1.77;;;1.50;;
43142;SDS011;28750;59.842;17.584;2024-01-06T03:22:04;2.38;;;1.85;;
43142;SDS011;28750;59.842;17.584;2024-01-06T03:24:31;2.83;;;1.60;;
43142;SDS011;28750;59.842;17.584;2024-01-06T03:26:59;2.47;;;1.83;;
43142;SDS011;28750;59.842;17.584;2024-01-06T03:29:26;1.65;;;1.55;;
43142;SDS011;28750;59.842;17.584;2024-01-06T03:31:53;2.97;;;1.90;;
43142;SDS011;28750;59.842;17.584;2024-01-06T03:34:21;1.48;;;1.38;;
43142;SDS011;28750;59.842;17.584;2024-01-06T03:36:48;2.95;;;1.55;;
43142;SDS011;28750;59.842;17.584;2024-01-06T03:39:16;1.65;;;1.50;;
43142;SDS011;28750;59.842;17.584;2024-01-06T03:41:43;2.85;;;1.55;;
43142;SDS011;28750;59.842;17.584;2024-01-06T03:44:11;2.40;;;1.65;;
43142;SDS011;28750;59.842;17.584;2024-01-06T03:46:38;3.65;;;1.88;;
43142;SDS011;28750;59.842;17.584;2024-01-06T03:49:06;2.55;;;1.65;;
43142;SDS011;28750;59.842;17.584;2024-01-06T03:51:33;2.38;;;1.80;;
43142;SDS011;28750;59.842;17.584;2024-01-06T03:54:01;2.17;;;1.33;;
43142;SDS011;28750;59.842;17.584;2024-01-06T03:56:28;1.95;;;1.58;;
43142;SDS011;28750;59.842;17.584;2024-01-06T03:58:56;2.92;;;1.70;;
43142;SDS011;28750;59.842;17.584;2024-01-06T04:01:23;2.22;;;1.40;;
43142;SDS011;28750;59.842;17.584;2024-01-06T04:03:51;1.60;;;1.50;;
43142;SDS011;28750;59.842;17.584;2024-01-06T04:06:18;2.15;;;1.60;;
43142;SDS011;28750;59.842;17.584;2024-01-06T04:08:46;6.40;;;1.70;;
43142;SDS011;28750;59.842;17.584;2024-01-06T04:11:13;2.17;;;1.70;;
43142;SDS011;28750;59.842;17.584;2024-01-06T04:13:41;2.28;;;1.67;;
43142;SDS011;28750;59.842;17.584;2024-01-06T04:16:08;2.80;;;1.70;;
43142;SDS011;28750;59.842;17.584;2024-01-06T04:18:36;1.73;;;1.60;;
43142;SDS011;28750;59.842;17.584;2024-01-06T04:21:03;2.00;;;1.80;;
43142;SDS011;28750;59.842;17.584;2024-01-06T04:23:31;2.63;;;1.35;;
43142;SDS011;28750;59.842;17.584;2024-01-06T04:25:58;3.65;;;1.75;;
43142;SDS011;28750;59.842;17.584;2024-01-06T04:28:26;1.85;;;1.67;;
43142;SDS011;28750;59.842;17.584;2024-01-06T04:30:54;3.72;;;1.48;;
43142;SDS011;28750;59.842;17.584;2024-01-06T04:33:21;4.38;;;2.00;;
43142;SDS011;28750;59.842;17.584;2024-01-06T04:35:48;1.67;;;1.58;;
43142;SDS011;28750;59.842;17.584;2024-01-06T04:38:16;3.22;;;1.60;;
43142;SDS011;28750;59.842;17.584;2024-01-06T04:40:43;2.47;;;1.73;;
43142;SDS011;28750;59.842;17.584;2024-01-06T04:43:11;3.13;;;1.63;;
43142;SDS011;28750;59.842;17.584;2024-01-06T04:45:38;2.47;;;1.60;;
43142;SDS011;28750;59.842;17.584;2024-01-06T04:48:06;2.40;;;1.50;;
43142;SDS011;28750;59.842;17.584;2024-01-06T04:50:33;2.10;;;1.60;;
43142;SDS011;28750;59.842;17.584;2024-01-06T04:53:00;1.92;;;1.65;;
43142;SDS011;28750;59.842;17.584;2024-01-06T04:55:28;3.20;;;1.38;;
43142;SDS011;28750;59.842;17.584;2024-01-06T04:57:55;1.90;;;1.50;;
43142;SDS011;28750;59.842;17.584;2024-01-06T05:00:23;1.65;;;1.40;;
43142;SDS011;28750;59.842;17.584;2024-01-06T05:02:51;2.45;;;1.70;;
43142;SDS011;28750;59.842;17.584;2024-01-06T05:05:18;2.97;;;1.60;;
43142;SDS011;28750;59.842;17.584;2024-01-06T05:07:46;4.00;;;1.60;;
43142;SDS011;28750;59.842;17.584;2024-01-06T05:10:13;1.73;;;1.40;;
43142;SDS011;28750;59.842;17.584;2024-01-06T05:12:40;1.58;;;1.30;;
43142;SDS011;28750;59.842;17.584;2024-01-06T05:15:08;2.63;;;1.50;;
43142;SDS011;28750;59.842;17.584;2024-01-06T05:17:36;4.45;;;1.80;;
43142;SDS011;28750;59.842;17.584;2024-01-06T05:20:03;1.48;;;1.30;;
43142;SDS011;28750;59.842;17.584;2024-01-06T05:22:31;1.67;;;1.25;;
43142;SDS011;28750;59.842;17.584;2024-01-06T05:24:59;2.33;;;1.52;;
43142;SDS011;28750;59.842;17.584;2024-01-06T05:27:26;1.90;;;1.33;;
43142;SDS011;28750;59.842;17.584;2024-01-06T05:29:54;2.65;;;1.40;;
43142;SDS011;28750;59.842;17.584;2024-01-06T05:32:21;2.03;;;1.52;;
43142;SDS011;28750;59.842;17.584;2024-01-06T05:34:49;2.47;;;1.52;;
43142;SDS011;28750;59.842;17.584;2024-01-06T05:37:17;2.33;;;1.42;;
43142;SDS011;28750;59.842;17.584;2024-01-06T05:39:44;2.63;;;1.70;;
43142;SDS011;28750;59.842;17.584;2024-01-06T05:42:12;3.95;;;1.42;;
43142;SDS011;28750;59.842;17.584;2024-01-06T05:44:40;1.85;;;1.52;;
43142;SDS011;28750;59.842;17.584;2024-01-06T05:47:07;2.22;;;1.50;;
43142;SDS011;28750;59.842;17.584;2024-01-06T05:49:35;3.08;;;1.90;;
43142;SDS011;28750;59.842;17.584;2024-01-06T05:52:03;3.55;;;1.60;;
43142;SDS011;28750;59.842;17.584;2024-01-06T05:54:30;1.98;;;1.27;;
43142;SDS011;28750;59.842;17.584;2024-01-06T05:56:58;2.10;;;1.65;;
43142;SDS011;28750;59.842;17.584;2024-01-06T05:59:25;2.33;;;1.33;;
43142;SDS011;28750;59.842;17.584;2024-01-06T06:01:53;2.83;;;1.77;;
43142;SDS011;28750;59.842;17.584;2024-01-06T06:04:20;2.67;;;1.70;;
43142;SDS011;28750;59.842;17.584;2024-01-06T06:06:48;1.83;;;1.30;;
43142;SDS011;28750;59.842;17.584;2024-01-06T06:09:16;2.20;;;1.50;;
43142;SDS011;28750;59.842;17.584;2024-01-06T06:11:43;2.67;;;1.90;;
43142;SDS011;28750;59.842;17.584;2024-01-06T06:14:11;2.25;;;1.60;;
43142;SDS011;28750;59.842;17.584;2024-01-06T06:16:38;2.47;;;1.38;;
43142;SDS011;28750;59.842;17.584;2024-01-06T06:19:06;2.50;;;1.63;;
43142;SDS011;28750;59.842;17.584;2024-01-06T06:21:34;2.03;;;1.65;;
43142;SDS011;28750;59.842;17.584;2024-01-06T06:24:01;2.80;;;1.48;;
43142;SDS011;28750;59.842;17.584;2024-01-06T06:26:29;3.15;;;1.35;;
43142;SDS011;28750;59.842;17.584;2024-01-06T06:28:57;2.35;;;1.80;;
43142;SDS011;28750;59.842;17.584;2024-01-06T06:31:25;2.35;;;1.83;;
43142;SDS011;28750;59.842;17.584;2024-01-06T06:33:53;3.92;;;1.38;;
43142;SDS011;28750;59.842;17.584;2024-01-06T06:36:20;1.80;;;1.50;;
43142;SDS011;28750;59.842;17.584;2024-01-06T06:38:47;2.72;;;1.80;;
43142;SDS011;28750;59.842;17.584;2024-01-06T06:41:15;2.83;;;1.50;;
43142;SDS011;28750;59.842;17.584;2024-01-06T06:43:42;2.55;;;1.60;;
43142;SDS011;28750;59.842;17.584;2024-01-06T06:46:09;6.43;;;5.75;;
43142;SDS011;28750;59.842;17.584;2024-01-06T06:48:37;6.65;;;5.22;;
43142;SDS011;28750;59.842;17.584;2024-01-06T06:51:05;13.55;;;5.95;;
43142;SDS011;28750;59.842;17.584;2024-01-06T06:53:32;5.18;;;2.25;;
43142;SDS011;28750;59.842;17.584;2024-01-06T06:56:00;3.88;;;2.10;;
43142;SDS011;28750;59.842;17.584;2024-01-06T06:58:27;2.40;;;1.80;;
43142;SDS011;28750;59.842;17.584;2024-01-06T07:00:55;2.55;;;1.92;;
43142;SDS011;28750;59.842;17.584;2024-01-06T07:03:22;3.63;;;1.75;;
43142;SDS011;28750;59.842;17.584;2024-01-06T07:05:51;3.28;;;1.85;;
43142;SDS011;28750;59.842;17.584;2024-01-06T07:08:18;2.35;;;1.80;;
43142;SDS011;28750;59.842;17.584;2024-01-06T07:10:45;1.92;;;1.63;;
43142;SDS011;28750;59.842;17.584;2024-01-06T07:13:13;1.85;;;1.55;;
43142;SDS011;28750;59.842;17.584;2024-01-06T07:15:40;3.90;;;1.80;;
43142;SDS011;28750;59.842;17.584;2024-01-06T07:18:07;2.65;;;2.00;;
43142;SDS011;28750;59.842;17.584;2024-01-06T07:20:35;2.65;;;1.60;;
43142;SDS011;28750;59.842;17.584;2024-01-06T07:23:02;3.03;;;1.67;;
43142;SDS011;28750;59.842;17.584;2024-01-06T07:25:30;1.73;;;1.35;;
43142;SDS011;28750;59.842;17.584;2024-01-06T07:27:57;3.72;;;2.58;;
43142;SDS011;28750;59.842;17.584;2024-01-06T07:30:25;2.25;;;1.80;;
43142;SDS011;28750;59.842;17.584;2024-01-06T07:32:53;3.53;;;2.15;;
43142;SDS011;28750;59.842;17.584;2024-01-06T07:35:20;4.18;;;1.85;;
43142;SDS011;28750;59.842;17.584;2024-01-06T07:37:48;3.55;;;1.67;;
43142;SDS011;28750;59.842;17.584;2024-01-06T07:40:15;3.50;;;2.50;;
43142;SDS011;28750;59.842;17.584;2024-01-06T07:42:43;2.03;;;1.70;;
43142;SDS011;28750;59.842;17.584;2024-01-06T07:45:10;4.70;;;2.10;;
43142;SDS011;28750;59.842;17.584;2024-01-06T07:47:38;2.85;;;1.80;;
43142;SDS011;28750;59.842;17.584;2024-01-06T07:50:05;2.97;;;2.15;;
43142;SDS011;28750;59.842;17.584;2024-01-06T07:52:33;3.65;;;2.00;;
43142;SDS011;28750;59.842;17.584;2024-01-06T07:55:01;2.85;;;2.13;;
43142;SDS011;28750;59.842;17.584;2024-01-06T07:57:28;2.20;;;1.60;;
43142;SDS011;28750;59.842;17.584;2024-01-06T07:59:55;4.30;;;2.15;;
43142;SDS011;28750;59.842;17.584;2024-01-06T08:02:23;4.68;;;1.88;;
43142;SDS011;28750;59.842;17.584;2024-01-06T08:04:50;3.65;;;1.85;;
43142;SDS011;28750;59.842;17.584;2024-01-06T08:07:19;3.67;;;1.70;;
43142;SDS011;28750;59.842;17.584;2024-01-06T08:09:46;3.05;;;1.60;;
43142;SDS011;28750;59.842;17.584;2024-01-06T08:12:14;2.40;;;1.90;;
43142;SDS011;28750;59.842;17.584;2024-01-06T08:14:42;3.50;;;2.25;;
43142;SDS011;28750;59.842;17.584;2024-01-06T08:17:09;3.50;;;2.03;;
43142;SDS011;28750;59.842;17.584;2024-01-06T08:19:36;2.70;;;2.28;;
43142;SDS011;28750;59.842;17.584;2024-01-06T08:22:04;2.97;;;2.03;;
43142;SDS011;28750;59.842;17.584;2024-01-06T08:24:32;3.78;;;2.42;;
43142;SDS011;28750;59.842;17.584;2024-01-06T08:26:59;3.85;;;2.20;;
43142;SDS011;28750;59.842;17.584;2024-01-06T08:29:26;5.10;;;2.67;;
43142;SDS011;28750;59.842;17.584;2024-01-06T08:31:54;5.50;;;2.65;;
43142;SDS011;28750;59.842;17.584;2024-01-06T08:34:21;4.40;;;2.13;;
43142;SDS011;28750;59.842;17.584;2024-01-06T08:36:49;3.05;;;2.28;;
43142;SDS011;28750;59.842;17.584;2024-01-06T08:39:16;4.75;;;2.10;;
43142;SDS011;28750;59.842;17.584;2024-01-06T08:41:43;4.30;;;2.47;;
43142;SDS011;28750;59.842;17.584;2024-01-06T08:44:11;4.18;;;2.95;;
43142;SDS011;28750;59.842;17.584;2024-01-06T08:46:39;6.03;;;2.55;;
43142;SDS011;28750;59.842;17.584;2024-01-06T08:49:07;3.92;;;2.03;;
43142;SDS011;28750;59.842;17.584;2024-01-06T08:51:34;5.97;;;2.75;;
43142;SDS011;28750;59.842;17.584;2024-01-06T08:54:01;4.50;;;2.42;;
43142;SDS011;28750;59.842;17.584;2024-01-06T08:56:30;5.50;;;2.97;;
43142;SDS011;28750;59.842;17.584;2024-01-06T08:58:57;6.93;;;3.22;;
43142;SDS011;28750;59.842;17.584;2024-01-06T09:01:25;3.33;;;2.58;;
43142;SDS011;28750;59.842;17.584;2024-01-06T09:03:52;3.78;;;1.83;;
43142;SDS011;28750;59.842;17.584;2024-01-06T09:06:19;4.47;;;2.20;;
43142;SDS011;28750;59.842;17.584;2024-01-06T09:08:47;2.97;;;2.30;;
43142;SDS011;28750;59.842;17.584;2024-01-06T09:11:14;6.85;;;2.72;;
43142;SDS011;28750;59.842;17.584;2024-01-06T09:13:42;7.05;;;3.30;;
43142;SDS011;28750;59.842;17.584;2024-01-06T09:16:09;10.88;;;4.38;;
43142;SDS011;28750;59.842;17.584;2024-01-06T09:18:36;43.22;;;12.68;;
43142;SDS011;28750;59.842;17.584;2024-01-06T09:21:04;87.38;;;25.33;;
43142;SDS011;28750;59.842;17.584;2024-01-06T09:23:32;69.55;;;21.25;;
43142;SDS011;28750;59.842;17.584;2024-01-06T09:25:59;74.03;;;22.50;;
43142;SDS011;28750;59.842;17.584;2024-01-06T09:28:28;67.38;;;23.40;;
43142;SDS011;28750;59.842;17.584;2024-01-06T09:30:55;15.43;;;6.03;;
43142;SDS011;28750;59.842;17.584;2024-01-06T09:33:23;10.98;;;5.95;;
43142;SDS011;28750;59.842;17.584;2024-01-06T09:35:50;9.55;;;4.68;;
43142;SDS011;28750;59.842;17.584;2024-01-06T09:38:18;13.73;;;7.28;;
43142;SDS011;28750;59.842;17.584;2024-01-06T09:40:45;6.43;;;3.47;;
43142;SDS011;28750;59.842;17.584;2024-01-06T09:43:13;6.15;;;3.28;;
43142;SDS011;28750;59.842;17.584;2024-01-06T09:45:40;5.80;;;3.40;;
43142;SDS011;28750;59.842;17.584;2024-01-06T09:48:11;3.33;;;2.30;;
43142;SDS011;28750;59.842;17.584;2024-01-06T09:50:42;5.82;;;2.78;;
43142;SDS011;28750;59.842;17.584;2024-01-06T09:53:10;3.38;;;1.98;;
43142;SDS011;28750;59.842;17.584;2024-01-06T09:55:38;5.13;;;2.70;;
43142;SDS011;28750;59.842;17.584;2024-01-06T09:58:05;4.97;;;2.40;;
43142;SDS011;28750;59.842;17.584;2024-01-06T10:00:33;6.53;;;2.30;;
43142;SDS011;28750;59.842;17.584;2024-01-06T10:03:01;8.65;;;3.00;;
43142;SDS011;28750;59.842;17.584;2024-01-06T10:05:28;7.32;;;3.45;;
43142;SDS011;28750;59.842;17.584;2024-01-06T10:07:55;8.57;;;3.00;;
43142;SDS011;28750;59.842;17.584;2024-01-06T10:10:23;22.02;;;6.95;;
43142;SDS011;28750;59.842;17.584;2024-01-06T10:12:52;14.75;;;6.32;;
43142;SDS011;28750;59.842;17.584;2024-01-06T10:17:48;3.00;;;2.38;;
43142;SDS011;28750;59.842;17.584;2024-01-06T10:20:16;4.60;;;2.15;;
43142;SDS011;28750;59.842;17.584;2024-01-06T10:22:45;4.25;;;3.00;;
43142;SDS011;28750;59.842;17.584;2024-01-06T10:25:13;4.30;;;2.80;;
43142;SDS011;28750;59.842;17.584;2024-01-06T10:27:41;6.05;;;3.17;;
43142;SDS011;28750;59.842;17.584;2024-01-06T10:30:09;4.40;;;2.88;;
43142;SDS011;28750;59.842;17.584;2024-01-06T10:32:38;5.45;;;2.83;;
43142;SDS011;28750;59.842;17.584;2024-01-06T10:35:06;5.75;;;2.78;;
43142;SDS011;28750;59.842;17.584;2024-01-06T10:37:34;6.57;;;2.90;;
43142;SDS011;28750;59.842;17.584;2024-01-06T10:40:09;5.47;;;3.10;;
43142;SDS011;28750;59.842;17.584;2024-01-06T10:42:37;9.68;;;2.92;;
43142;SDS011;28750;59.842;17.584;2024-01-06T10:45:09;7.82;;;2.53;;
43142;SDS011;28750;59.842;17.584;2024-01-06T10:47:37;5.82;;;2.53;;
43142;SDS011;28750;59.842;17.584;2024-01-06T10:50:05;5.45;;;3.03;;
43142;SDS011;28750;59.842;17.584;2024-01-06T10:52:33;4.20;;;2.63;;
43142;SDS011;28750;59.842;17.584;2024-01-06T10:55:01;5.80;;;2.50;;
43142;SDS011;28750;59.842;17.584;2024-01-06T10:57:29;3.47;;;2.55;;
43142;SDS011;28750;59.842;17.584;2024-01-06T10:59:58;5.32;;;3.00;;
43142;SDS011;28750;59.842;17.584;2024-01-06T11:02:26;4.13;;;2.22;;
43142;SDS011;28750;59.842;17.584;2024-01-06T11:04:54;5.15;;;2.60;;
43142;SDS011;28750;59.842;17.584;2024-01-06T11:07:22;4.72;;;2.55;;
43142;SDS011;28750;59.842;17.584;2024-01-06T11:09:51;5.13;;;2.40;;
43142;SDS011;28750;59.842;17.584;2024-01-06T11:12:19;6.53;;;2.30;;
43142;SDS011;28750;59.842;17.584;2024-01-06T11:14:47;5.70;;;2.17;;
43142;SDS011;28750;59.842;17.584;2024-01-06T11:17:47;4.57;;;2.38;;
43142;SDS011;28750;59.842;17.584;2024-01-06T11:20:05;4.80;;;2.67;;
43142;SDS011;28750;59.842;17.584;2024-01-06T11:22:32;4.55;;;2.50;;
43142;SDS011;28750;59.842;17.584;2024-01-06T11:25:08;5.05;;;2.78;;
43142;SDS011;28750;59.842;17.584;2024-01-06T11:27:35;4.57;;;2.53;;
43142;SDS011;28750;59.842;17.584;2024-01-06T11:30:03;6.38;;;2.58;;
43142;SDS011;28750;59.842;17.584;2024-01-06T11:32:32;4.00;;;2.55;;
43142;SDS011;28750;59.842;17.584;2024-01-06T11:35:05;4.13;;;2.53;;
43142;SDS011;28750;59.842;17.584;2024-01-06T11:40:23;5.28;;;2.60;;
43142;SDS011;28750;59.842;17.584;2024-01-06T11:42:57;3.50;;;2.08;;
43142;SDS011;28750;59.842;17.584;2024-01-06T11:45:25;4.18;;;2.30;;
43142;SDS011;28750;59.842;17.584;2024-01-06T11:47:57;6.15;;;2.80;;
43142;SDS011;28750;59.842;17.584;2024-01-06T11:50:25;8.13;;;3.25;;
43142;SDS011;28750;59.842;17.584;2024-01-06T11:52:53;4.95;;;2.70;;
43142;SDS011;28750;59.842;17.584;2024-01-06T11:55:20;4.97;;;2.65;;
43142;SDS011;28750;59.842;17.584;2024-01-06T11:57:48;5.32;;;3.08;;
43142;SDS011;28750;59.842;17.584;2024-01-06T12:00:16;4.88;;;2.47;;
43142;SDS011;28750;59.842;17.584;2024-01-06T12:02:43;7.03;;;2.95;;
43142;SDS011;28750;59.842;17.584;2024-01-06T12:05:17;3.85;;;2.53;;
43142;SDS011;28750;59.842;17.584;2024-01-06T12:07:55;4.45;;;2.58;;
43142;SDS011;28750;59.842;17.584;2024-01-06T12:10:23;7.57;;;2.60;;
43142;SDS011;28750;59.842;17.584;2024-01-06T12:13:00;5.75;;;3.30;;
43142;SDS011;28750;59.842;17.584;2024-01-06T12:15:29;5.10;;;3.10;;
43142;SDS011;28750;59.842;17.584;2024-01-06T12:17:56;6.75;;;3.22;;
43142;SDS011;28750;59.842;17.584;2024-01-06T12:20:25;6.90;;;2.60;;
43142;SDS011;28750;59.842;17.584;2024-01-06T12:22:54;6.10;;;3.50;;
43142;SDS011;28750;59.842;17.584;2024-01-06T12:25:22;7.90;;;3.38;;
43142;SDS011;28750;59.842;17.584;2024-01-06T12:27:50;6.22;;;3.60;;
43142;SDS011;28750;59.842;17.584;2024-01-06T12:30:19;8.93;;;3.75;;
43142;SDS011;28750;59.842;17.584;2024-01-06T12:32:47;7.85;;;3.55;;
43142;SDS011;28750;59.842;17.584;2024-01-06T12:35:15;4.65;;;2.83;;
43142;SDS011;28750;59.842;17.584;2024-01-06T12:37:43;8.85;;;2.90;;
43142;SDS011;28750;59.842;17.584;2024-01-06T12:40:13;4.68;;;2.42;;
43142;SDS011;28750;59.842;17.584;2024-01-06T12:42:42;6.22;;;3.08;;
43142;SDS011;28750;59.842;17.584;2024-01-06T12:45:10;9.13;;;2.95;;
43142;SDS011;28750;59.842;17.584;2024-01-06T12:47:37;5.15;;;2.60;;
43142;SDS011;28750;59.842;17.584;2024-01-06T12:50:06;4.72;;;2.78;;
43142;SDS011;28750;59.842;17.584;2024-01-06T12:52:33;6.10;;;3.13;;
43142;SDS011;28750;59.842;17.584;2024-01-06T12:55:03;4.18;;;2.72;;
43142;SDS011;28750;59.842;17.584;2024-01-06T12:57:30;8.50;;;3.20;;
43142;SDS011;28750;59.842;17.584;2024-01-06T12:59:59;7.82;;;3.67;;
43142;SDS011;28750;59.842;17.584;2024-01-06T13:02:26;7.43;;;3.35;;
43142;SDS011;28750;59.842;17.584;2024-01-06T13:04:53;7.35;;;3.03;;
43142;SDS011;28750;59.842;17.584;2024-01-06T13:07:21;8.90;;;3.15;;
43142;SDS011;28750;59.842;17.584;2024-01-06T13:09:49;5.60;;;2.75;;
43142;SDS011;28750;59.842;17.584;2024-01-06T13:12:17;9.15;;;2.97;;
43142;SDS011;28750;59.842;17.584;2024-01-06T13:14:45;7.25;;;2.70;;
43142;SDS011;28750;59.842;17.584;2024-01-06T13:17:13;8.23;;;2.88;;
43142;SDS011;28750;59.842;17.584;2024-01-06T13:19:40;7.80;;;3.20;;
43142;SDS011;28750;59.842;17.584;2024-01-06T13:22:08;5.50;;;3.10;;
43142;SDS011;28750;59.842;17.584;2024-01-06T13:24:35;4.95;;;2.60;;
43142;SDS011;28750;59.842;17.584;2024-01-06T13:27:03;5.85;;;3.10;;
43142;SDS011;28750;59.842;17.584;2024-01-06T13:29:30;5.10;;;2.60;;
43142;SDS011;28750;59.842;17.584;2024-01-06T13:31:58;6.07;;;2.28;;
43142;SDS011;28750;59.842;17.584;2024-01-06T13:34:26;4.72;;;2.63;;
43142;SDS011;28750;59.842;17.584;2024-01-06T13:36:55;3.90;;;2.30;;
43142;SDS011;28750;59.842;17.584;2024-01-06T13:39:22;4.28;;;2.78;;
43142;SDS011;28750;59.842;17.584;2024-01-06T13:41:50;4.95;;;2.83;;
43142;SDS011;28750;59.842;17.584;2024-01-06T13:44:17;6.28;;;3.25;;
43142;SDS011;28750;59.842;17.584;2024-01-06T13:46:47;6.30;;;2.90;;
43142;SDS011;28750;59.842;17.584;2024-01-06T13:49:16;3.92;;;2.50;;
43142;SDS011;28750;59.842;17.584;2024-01-06T13:51:44;6.90;;;2.90;;
43142;SDS011;28750;59.842;17.584;2024-01-06T13:54:11;4.03;;;2.85;;
43142;SDS011;28750;59.842;17.584;2024-01-06T13:56:39;6.93;;;2.85;;
43142;SDS011;28750;59.842;17.584;2024-01-06T13:59:06;5.50;;;2.75;;
43142;SDS011;28750;59.842;17.584;2024-01-06T14:01:33;3.92;;;3.10;;
43142;SDS011;28750;59.842;17.584;2024-01-06T14:04:01;5.38;;;3.00;;
43142;SDS011;28750;59.842;17.584;2024-01-06T14:06:30;6.53;;;2.97;;
43142;SDS011;28750;59.842;17.584;2024-01-06T14:08:59;4.97;;;2.75;;
43142;SDS011;28750;59.842;17.584;2024-01-06T14:11:26;6.15;;;2.90;;
43142;SDS011;28750;59.842;17.584;2024-01-06T14:13:56;7.05;;;3.95;;
43142;SDS011;28750;59.842;17.584;2024-01-06T14:16:24;12.20;;;4.78;;
43142;SDS011;28750;59.842;17.584;2024-01-06T14:18:51;10.18;;;4.25;;
43142;SDS011;28750;59.842;17.584;2024-01-06T14:21:20;12.13;;;5.25;;
43142;SDS011;28750;59.842;17.584;2024-01-06T14:23:47;10.95;;;5.00;;
43142;SDS011;28750;59.842;17.584;2024-01-06T14:26:18;11.57;;;5.10;;
43142;SDS011;28750;59.842;17.584;2024-01-06T14:28:46;16.27;;;5.90;;
43142;SDS011;28750;59.842;17.584;2024-01-06T14:31:14;13.48;;;5.32;;
43142;SDS011;28750;59.842;17.584;2024-01-06T14:33:41;15.10;;;6.28;;
43142;SDS011;28750;59.842;17.584;2024-01-06T14:36:09;12.88;;;5.85;;
43142;SDS011;28750;59.842;17.584;2024-01-06T14:38:36;20.25;;;7.68;;
43142;SDS011;28750;59.842;17.584;2024-01-06T14:41:02;21.50;;;8.23;;